Overview Statistics Trail Chart Weather Telemetry Raw packets
 

This is the latest recevied weather packets stored in our database for station/object KF7SOJ. If no packets are shown the sender has not sent any weather packets the latest 10 day(s).

<< 71 72 73 74 75 76 77 >>
Time Temp. Humidity Pressure Rain* Wind** Luminosity Snow
1788107271 12.78° C 83% 931.6 hPa 1.78 mm - 113 W/m² -
1788106968 12.78° C 84% 931.7 hPa 3.56 mm - 42 W/m² -
1788106663 12.78° C 85% 931.6 hPa 4.32 mm - 63 W/m² -
1788106362 12.22° C 86% 931.3 hPa 8.38 mm - 70 W/m² -
1788106058 12.22° C 85% 931.4 hPa 8.38 mm - 53 W/m² -
1788105758 12.78° C 81% 931.4 hPa 3.05 mm - 36 W/m² -
1788105454 16.11° C 68% 931.4 hPa 0 mm - 12 W/m² -
1788105150 18.89° C 58% 930.6 hPa 0 mm - 25 W/m² -
1788104845 18.89° C 58% 930.1 hPa 0 mm - 72 W/m² -
1788104541 19.44° C 57% 929.8 hPa 0 mm - 79 W/m² -
1788104237 20° C 55% 929.8 hPa 0 mm - 136 W/m² -
1788103932 20.56° C 54% 929.7 hPa 0 mm - 630 W/m² -
1788103630 19.44° C 58% 929.6 hPa 0 mm - 424 W/m² -
1788103330 19.44° C 58% 929.3 hPa 0 mm - 387 W/m² -
1788103025 19.44° C 58% 929.2 hPa 0 mm - 365 W/m² -
1788102724 18.89° C 60% 929 hPa 0 mm - 350 W/m² -
1788102420 18.89° C 60% 929.1 hPa 0 mm - 336 W/m² -
1788102114 18.89° C 60% 929.4 hPa 0 mm - 320 W/m² -
1788101814 18.89° C 60% 929.5 hPa 0 mm - 302 W/m² -
1788101509 18.89° C 61% 929.8 hPa 0 mm - 165 W/m² -
1788101204 18.89° C 60% 929.6 hPa 0 mm - 271 W/m² -
1788100900 18.89° C 60% 929.5 hPa 0 mm - 254 W/m² -
1788100596 18.89° C 61% 929.5 hPa 0 mm - 235 W/m² -
1788100294 18.89° C 61% 929.8 hPa 0 mm - 220 W/m² -
1788099989 18.33° C 61% 929.7 hPa 0 mm - 208 W/m² -

* Rain latest hour (hover to see other rain measurements)
** Current wind speed in m/s (hover to see current wind gust speed)